createdAt,value
2023-04-23T00:02:30.711Z,3.83
2023-04-23T00:05:34.417Z,4.50
2023-04-23T00:08:40.589Z,4.20
2023-04-23T00:11:45.189Z,4.83
2023-04-23T00:14:48.710Z,4.97
2023-04-23T00:17:51.675Z,4.73
2023-04-23T00:20:54.634Z,5.33
2023-04-23T00:23:57.628Z,5.17
2023-04-23T00:27:02.031Z,5.90
2023-04-23T00:30:05.675Z,5.77
2023-04-23T00:33:08.638Z,6.23
2023-04-23T00:36:11.598Z,5.67
2023-04-23T00:39:14.879Z,6.07
2023-04-23T00:42:19.259Z,6.87
2023-04-23T00:45:22.472Z,6.30
2023-04-23T00:48:25.612Z,6.17
2023-04-23T00:51:29.675Z,6.57
2023-04-23T00:54:32.779Z,6.63
2023-04-23T00:57:37.541Z,6.77
2023-04-23T01:00:46.241Z,7.73
2023-04-23T01:03:50.746Z,7.60
2023-04-23T01:06:54.462Z,7.77
2023-04-23T01:09:57.495Z,7.63
2023-04-23T01:13:02.257Z,7.77
2023-04-23T01:16:05.351Z,7.50
2023-04-23T01:19:10.003Z,8.00
2023-04-23T01:22:15.552Z,7.97
2023-04-23T01:25:18.578Z,8.67
2023-04-23T01:28:22.345Z,9.47
2023-04-23T01:31:25.421Z,9.57
2023-04-23T01:34:28.481Z,8.67
2023-04-23T01:37:33.949Z,9.67
2023-04-23T01:40:36.977Z,8.90
2023-04-23T01:43:41.000Z,9.03
2023-04-23T01:46:44.046Z,8.80
2023-04-23T01:49:47.102Z,7.83
2023-04-23T01:52:51.642Z,9.23
2023-04-23T01:55:56.888Z,8.97
2023-04-23T01:58:59.905Z,9.10
2023-04-23T02:02:02.882Z,8.67
2023-04-23T02:05:09.981Z,9.37
2023-04-23T02:08:14.425Z,12.27
2023-04-23T02:11:17.530Z,13.70
2023-04-23T02:14:20.900Z,15.07
2023-04-23T02:17:23.959Z,15.43
2023-04-23T02:20:26.950Z,16.03
2023-04-23T02:23:31.230Z,16.13
2023-04-23T02:26:34.507Z,18.07
2023-04-23T02:29:37.768Z,18.00
2023-04-23T02:32:41.780Z,18.23
2023-04-23T02:35:44.742Z,19.07
2023-04-23T02:38:51.041Z,19.50
2023-04-23T02:41:53.955Z,20.67
2023-04-23T02:44:56.919Z,19.80
2023-04-23T02:47:59.941Z,18.73
2023-04-23T02:51:03.658Z,17.73
2023-04-23T02:54:08.036Z,18.30
2023-04-23T02:57:12.750Z,18.47
2023-04-23T03:00:17.016Z,18.00
2023-04-23T03:03:20.298Z,16.80
2023-04-23T03:06:23.425Z,17.23
2023-04-23T03:09:27.755Z,16.90
2023-04-23T03:12:30.781Z,16.53
2023-04-23T03:15:33.745Z,18.40
2023-04-23T03:18:37.834Z,16.33
2023-04-23T03:21:41.038Z,14.53
2023-04-23T03:24:45.865Z,12.70
2023-04-23T03:27:48.921Z,12.80
2023-04-23T03:30:52.052Z,12.53
2023-04-23T03:33:55.063Z,11.87
2023-04-23T03:36:57.983Z,11.83
2023-04-23T03:40:03.537Z,11.37
2023-04-23T03:43:06.472Z,10.53
2023-04-23T03:46:09.448Z,10.57
2023-04-23T03:49:12.401Z,10.17
2023-04-23T03:52:15.384Z,10.50
2023-04-23T03:55:20.593Z,10.50
2023-04-23T03:58:23.563Z,9.20
2023-04-23T04:01:26.558Z,9.43
2023-04-23T04:04:29.881Z,8.57
2023-04-23T04:07:33.498Z,9.70
2023-04-23T04:10:37.860Z,9.27
2023-04-23T04:13:40.862Z,9.67
2023-04-23T04:16:43.872Z,9.67
2023-04-23T04:19:46.831Z,9.83
2023-04-23T04:22:49.771Z,9.60
2023-04-23T04:25:56.474Z,9.23
2023-04-23T04:29:00.210Z,9.10
2023-04-23T04:32:05.206Z,8.97
2023-04-23T04:35:09.360Z,8.43
2023-04-23T04:38:12.526Z,8.07
2023-04-23T04:41:16.853Z,8.07
2023-04-23T04:44:20.071Z,7.53
2023-04-23T04:47:23.051Z,7.70
2023-04-23T04:50:26.015Z,6.93
2023-04-23T04:53:29.090Z,7.10
2023-04-23T04:56:33.484Z,7.50
2023-04-23T04:59:36.799Z,6.70
2023-04-23T05:02:39.819Z,7.37
2023-04-23T05:05:43.806Z,7.47
2023-04-23T05:08:48.360Z,7.03
2023-04-23T05:11:52.719Z,6.73
2023-04-23T05:14:55.652Z,6.27
2023-04-23T05:17:58.625Z,6.33
2023-04-23T05:21:01.840Z,6.30
2023-04-23T05:24:04.926Z,6.23
2023-04-23T05:27:09.253Z,5.40
2023-04-23T05:30:12.861Z,4.50
2023-04-23T05:33:16.047Z,5.10
2023-04-23T05:36:19.346Z,4.60
2023-04-23T05:39:22.290Z,4.87
2023-04-23T05:42:26.580Z,5.57
2023-04-23T05:45:29.913Z,6.00
2023-04-23T05:48:32.896Z,5.67
2023-04-23T05:51:35.874Z,5.57
2023-04-23T05:54:39.016Z,5.60
2023-04-23T05:57:43.710Z,5.93
2023-04-23T06:00:46.826Z,6.17
2023-04-23T06:03:49.964Z,6.40
2023-04-23T06:06:53.024Z,5.37
2023-04-23T06:09:55.990Z,5.97
2023-04-23T06:13:00.283Z,5.20
2023-04-23T06:16:03.256Z,4.73
2023-04-23T06:19:06.553Z,5.07
2023-04-23T06:22:09.913Z,4.27
2023-04-23T06:25:12.871Z,4.27
2023-04-23T06:28:17.148Z,4.40
2023-04-23T06:31:20.249Z,4.10
2023-04-23T06:34:23.284Z,3.70
2023-04-23T06:37:29.573Z,3.87
2023-04-23T06:40:33.246Z,3.90
2023-04-23T06:43:37.558Z,3.33
2023-04-23T06:46:40.582Z,3.20
2023-04-23T06:49:43.539Z,3.70
2023-04-23T06:52:46.507Z,3.67
2023-04-23T06:55:50.345Z,3.83
2023-04-23T06:58:54.683Z,3.70
2023-04-23T07:01:57.633Z,4.13
2023-04-23T07:05:00.699Z,4.03
2023-04-23T07:08:03.675Z,4.10
2023-04-23T07:11:07.074Z,4.70
2023-04-23T07:14:11.395Z,4.70
2023-04-23T07:17:14.658Z,4.30
2023-04-23T07:20:17.670Z,4.57
2023-04-23T07:23:20.638Z,4.50
2023-04-23T07:26:23.619Z,4.70
2023-04-23T07:29:27.973Z,4.60
2023-04-23T07:32:31.344Z,4.60
2023-04-23T07:35:34.325Z,4.43
2023-04-23T07:38:37.263Z,4.43
2023-04-23T07:41:40.313Z,3.83
2023-04-23T07:44:44.593Z,4.27
2023-04-23T07:47:47.781Z,4.40
2023-04-23T07:50:51.174Z,4.00
2023-04-23T07:53:56.296Z,4.57
2023-04-23T07:56:59.256Z,4.10
2023-04-23T08:00:03.569Z,4.30
2023-04-23T08:03:06.710Z,4.50
2023-04-23T08:06:12.124Z,4.10
2023-04-23T08:09:15.126Z,3.70
2023-04-23T08:12:18.150Z,4.30
2023-04-23T08:15:22.549Z,4.33
2023-04-23T08:18:25.526Z,4.40
2023-04-23T08:21:29.628Z,4.80
2023-04-23T08:24:32.625Z,5.03
2023-04-23T08:27:35.625Z,4.60
2023-04-23T08:30:40.096Z,4.20
2023-04-23T08:33:43.128Z,4.67
2023-04-23T08:36:46.531Z,4.50
2023-04-23T08:39:49.470Z,5.27
2023-04-23T08:42:58.253Z,4.87
2023-04-23T08:46:05.265Z,4.83
2023-04-23T08:49:09.085Z,4.80
2023-04-23T08:52:17.985Z,4.60
2023-04-23T08:55:21.992Z,4.63
2023-04-23T08:58:27.952Z,4.20
2023-04-23T09:01:32.612Z,4.03
2023-04-23T09:04:36.401Z,4.80
2023-04-23T09:07:39.679Z,4.87
2023-04-23T09:10:44.564Z,4.67
2023-04-23T09:13:47.531Z,4.87
2023-04-23T09:16:52.461Z,5.03
2023-04-23T09:19:56.315Z,4.13
2023-04-23T09:22:59.257Z,4.50
2023-04-23T09:26:06.767Z,4.30
2023-04-23T09:29:17.325Z,4.70
2023-04-23T09:32:32.717Z,4.50
2023-04-23T09:35:38.004Z,5.17
2023-04-23T09:38:42.678Z,4.90
2023-04-23T09:41:46.773Z,4.97
2023-04-23T09:44:57.636Z,5.10
2023-04-23T09:48:02.283Z,5.60
2023-04-23T09:51:05.404Z,5.90
2023-04-23T09:54:13.767Z,4.80
2023-04-23T09:57:17.264Z,5.67
2023-04-23T10:00:22.968Z,5.47
2023-04-23T10:03:29.472Z,5.80
2023-04-23T10:06:46.590Z,5.50
2023-04-23T10:09:52.835Z,5.90
2023-04-23T10:12:56.581Z,5.53
2023-04-23T10:16:14.071Z,5.73
2023-04-23T10:19:23.826Z,4.73
2023-04-23T10:22:30.210Z,4.80
2023-04-23T10:25:34.571Z,5.47
2023-04-23T10:28:39.041Z,6.30
2023-04-23T10:31:43.670Z,6.00
2023-04-23T10:34:49.435Z,6.23
2023-04-23T10:37:53.342Z,6.40
2023-04-23T10:40:59.360Z,6.50
2023-04-23T10:44:02.353Z,6.40
2023-04-23T10:47:06.358Z,6.53
2023-04-23T10:50:25.216Z,6.80
2023-04-23T10:53:28.214Z,7.33
2023-04-23T10:56:31.326Z,7.73
2023-04-23T10:59:35.572Z,8.53
2023-04-23T11:02:45.093Z,7.60
2023-04-23T11:05:49.977Z,7.23
2023-04-23T11:08:54.851Z,6.60
2023-04-23T11:11:58.976Z,7.40
2023-04-23T11:15:12.145Z,7.33
2023-04-23T11:18:15.248Z,6.67
2023-04-23T11:21:20.675Z,6.70
2023-04-23T11:24:23.662Z,7.00
2023-04-23T11:27:26.851Z,6.93
2023-04-23T11:30:31.964Z,5.27
2023-04-23T11:33:34.976Z,6.23
2023-04-23T11:36:39.986Z,5.90
2023-04-23T11:39:44.923Z,5.90
2023-04-23T11:42:49.708Z,5.83
2023-04-23T11:45:53.109Z,5.50
2023-04-23T11:48:56.102Z,6.00
2023-04-23T11:52:02.608Z,5.43
2023-04-23T11:55:07.626Z,6.47
2023-04-23T11:58:11.110Z,5.60
2023-04-23T12:01:14.285Z,5.37
2023-04-23T12:04:19.939Z,6.40
2023-04-23T12:07:35.404Z,5.70
2023-04-23T12:10:44.233Z,5.37
2023-04-23T12:13:47.172Z,5.70
2023-04-23T12:16:52.280Z,5.07
2023-04-23T12:19:56.179Z,5.20
2023-04-23T12:23:05.401Z,4.80
2023-04-23T12:26:11.702Z,4.27
2023-04-23T12:29:14.975Z,4.80
2023-04-23T12:32:19.209Z,4.43
2023-04-23T12:35:23.986Z,3.93
2023-04-23T12:38:31.190Z,4.37
2023-04-23T12:41:34.174Z,4.40
2023-04-23T12:44:39.048Z,3.90
2023-04-23T12:47:42.035Z,3.63
2023-04-23T12:50:46.463Z,4.20
2023-04-23T12:53:51.229Z,3.03
2023-04-23T12:56:54.632Z,3.13
2023-04-23T12:59:57.584Z,2.33
2023-04-23T13:03:00.624Z,2.77
2023-04-23T13:06:03.630Z,3.30
2023-04-23T13:09:10.125Z,2.57
2023-04-23T13:12:13.297Z,3.10
2023-04-23T13:15:16.288Z,3.10
2023-04-23T13:18:19.229Z,2.43
2023-04-23T13:21:22.317Z,2.83
2023-04-23T13:24:26.745Z,2.57
2023-04-23T13:27:30.922Z,2.77
2023-04-23T13:30:33.951Z,2.40
2023-04-23T13:33:36.871Z,2.27
2023-04-23T13:36:41.380Z,2.50
2023-04-23T13:39:46.032Z,2.17
2023-04-23T13:42:50.363Z,1.83
2023-04-23T13:45:55.030Z,2.13
2023-04-23T13:48:58.243Z,2.30
2023-04-23T13:52:06.318Z,2.30
2023-04-23T13:55:11.337Z,2.60
2023-04-23T13:58:14.342Z,2.63
2023-04-23T14:01:17.493Z,2.40
2023-04-23T14:04:23.877Z,2.37
2023-04-23T14:07:26.905Z,2.40
2023-04-23T14:10:31.337Z,2.20
2023-04-23T14:13:34.496Z,2.20
2023-04-23T14:16:37.450Z,2.20
2023-04-23T14:19:40.575Z,2.33
2023-04-23T14:22:43.919Z,2.00
2023-04-23T14:25:48.324Z,2.27
2023-04-23T14:28:53.515Z,2.07
2023-04-23T14:31:56.509Z,1.80
2023-04-23T14:34:59.459Z,2.67
2023-04-23T14:38:02.471Z,3.90
2023-04-23T14:41:06.907Z,4.07
2023-04-23T14:44:09.870Z,3.87
2023-04-23T14:47:12.801Z,4.30
2023-04-23T14:50:17.563Z,4.07
2023-04-23T14:53:21.470Z,4.17
2023-04-23T14:56:26.109Z,5.53
2023-04-23T14:59:29.125Z,5.40
2023-04-23T15:02:32.971Z,5.53
2023-04-23T15:05:35.945Z,5.87
2023-04-23T15:08:38.858Z,4.33
2023-04-23T15:11:43.441Z,4.10
2023-04-23T15:14:46.544Z,3.33
2023-04-23T15:17:49.760Z,3.70
2023-04-23T15:20:52.766Z,3.27
2023-04-23T15:23:56.600Z,2.87
2023-04-23T15:27:02.016Z,2.90
2023-04-23T15:30:05.732Z,2.27
2023-04-23T15:33:08.694Z,2.30
2023-04-23T15:36:11.697Z,2.13
2023-04-23T15:39:14.657Z,2.87
2023-04-23T15:42:21.140Z,2.20
2023-04-23T15:45:24.110Z,1.80
2023-04-23T15:48:27.173Z,1.90
2023-04-23T15:51:30.994Z,2.50
2023-04-23T15:54:33.976Z,2.10
2023-04-23T15:57:38.383Z,2.13
2023-04-23T16:00:41.464Z,1.97
2023-04-23T16:03:57.709Z,2.40
2023-04-23T16:07:07.400Z,2.40
2023-04-23T16:10:11.605Z,2.50
2023-04-23T16:13:15.963Z,2.70
2023-04-23T16:16:19.019Z,2.23
2023-04-23T16:19:22.012Z,2.00
2023-04-23T16:22:25.515Z,2.50
2023-04-23T16:25:28.486Z,3.30
2023-04-23T16:28:32.886Z,2.83
2023-04-23T16:31:36.098Z,3.00
2023-04-23T16:34:39.161Z,2.80
2023-04-23T16:37:42.165Z,2.87
2023-04-23T16:40:47.125Z,3.93
2023-04-23T16:43:51.400Z,3.53
2023-04-23T16:46:54.437Z,3.53
2023-04-23T16:49:57.401Z,4.60
2023-04-23T16:53:01.334Z,4.23
2023-04-23T16:56:04.471Z,4.13
2023-04-23T16:59:09.116Z,4.00
2023-04-23T17:02:12.343Z,3.70
2023-04-23T17:05:15.667Z,4.30
2023-04-23T17:08:18.692Z,4.67
2023-04-23T17:11:22.844Z,4.00
2023-04-23T17:14:27.302Z,4.47
2023-04-23T17:17:30.283Z,4.60
2023-04-23T17:20:35.223Z,4.27
2023-04-23T17:23:38.288Z,3.50
2023-04-23T17:26:41.275Z,3.73
2023-04-23T17:29:45.581Z,4.67
2023-04-23T17:32:48.596Z,3.77
2023-04-23T17:35:53.141Z,3.70
2023-04-23T17:38:56.067Z,4.03
2023-04-23T17:41:59.013Z,4.50
2023-04-23T17:45:03.443Z,4.60
2023-04-23T17:48:06.502Z,4.10
2023-04-23T17:51:09.590Z,4.50
2023-04-23T17:54:12.540Z,4.97
2023-04-23T17:57:15.500Z,4.43
2023-04-23T18:00:20.404Z,5.00
2023-04-23T18:03:23.728Z,5.00
2023-04-23T18:06:27.037Z,4.60
2023-04-23T18:09:30.000Z,4.50
2023-04-23T18:12:34.003Z,5.30
2023-04-23T18:15:38.526Z,4.93
2023-04-23T18:18:41.567Z,5.37
2023-04-23T18:21:45.882Z,4.67
2023-04-23T18:24:49.594Z,4.67
2023-04-23T18:27:52.567Z,5.03
2023-04-23T18:31:02.197Z,4.90
2023-04-23T18:34:10.853Z,5.20
2023-04-23T18:37:33.559Z,5.70
2023-04-23T18:40:36.550Z,4.53
2023-04-23T18:43:39.508Z,4.93
2023-04-23T18:46:43.881Z,5.20
2023-04-23T18:49:53.369Z,5.30
2023-04-23T18:52:56.591Z,5.00
2023-04-23T18:55:59.547Z,5.60
2023-04-23T18:59:02.574Z,4.90
2023-04-23T19:02:07.674Z,4.90
2023-04-23T19:05:11.383Z,4.57
2023-04-23T19:08:14.434Z,4.43
2023-04-23T19:11:17.395Z,4.63
2023-04-23T19:14:20.400Z,4.70
2023-04-23T19:17:24.899Z,5.00
2023-04-23T19:20:28.218Z,4.83
2023-04-23T19:23:31.233Z,4.67
2023-04-23T19:26:34.290Z,4.37
2023-04-23T19:29:37.208Z,4.13
2023-04-23T19:32:41.644Z,4.30
2023-04-23T19:35:44.622Z,4.67
2023-04-23T19:38:47.572Z,4.83
2023-04-23T19:41:50.547Z,5.20
2023-04-23T19:44:53.484Z,4.73
2023-04-23T19:47:58.635Z,4.30
2023-04-23T19:51:01.669Z,5.10
2023-04-23T19:54:06.257Z,4.90
2023-04-23T19:57:09.287Z,4.93
2023-04-23T20:00:14.290Z,4.70
2023-04-23T20:03:18.834Z,4.40
2023-04-23T20:06:22.157Z,4.67
2023-04-23T20:09:25.439Z,4.37
2023-04-23T20:12:29.883Z,4.60
2023-04-23T20:15:33.269Z,4.67
2023-04-23T20:18:39.097Z,4.43
2023-04-23T20:21:43.568Z,4.80
2023-04-23T20:24:48.767Z,4.83
2023-04-23T20:27:52.306Z,4.37
2023-04-23T20:30:55.325Z,4.17
2023-04-23T20:33:59.828Z,4.50
2023-04-23T20:37:03.059Z,4.80
2023-04-23T20:40:10.503Z,4.57
2023-04-23T20:43:13.529Z,4.23
2023-04-23T20:46:16.612Z,4.80
2023-04-23T20:49:21.381Z,4.20
2023-04-23T20:52:24.340Z,4.47
2023-04-23T20:55:27.347Z,4.10
2023-04-23T20:58:30.384Z,4.63
2023-04-23T21:01:33.406Z,4.33
2023-04-23T21:04:37.922Z,4.27
2023-04-23T21:07:41.101Z,4.47
2023-04-23T21:10:44.112Z,3.57
2023-04-23T21:13:47.690Z,3.70
2023-04-23T21:16:50.650Z,4.17
2023-04-23T21:19:54.915Z,3.93
2023-04-23T21:22:57.883Z,3.97
2023-04-23T21:26:00.882Z,3.80
2023-04-23T21:29:04.302Z,3.90
2023-04-23T21:32:09.057Z,3.70
2023-04-23T21:35:13.345Z,3.60
2023-04-23T21:38:16.354Z,3.20
2023-04-23T21:41:19.388Z,3.50
2023-04-23T21:44:22.457Z,3.43
2023-04-23T21:47:25.533Z,3.33
2023-04-23T21:50:32.264Z,3.47
2023-04-23T21:53:35.342Z,3.23
2023-04-23T21:56:39.000Z,3.40
2023-04-23T21:59:42.911Z,3.80
2023-04-23T22:02:47.797Z,3.60
2023-04-23T22:05:53.160Z,3.90
2023-04-23T22:08:56.772Z,3.70
2023-04-23T22:12:02.245Z,3.80
2023-04-23T22:15:07.062Z,4.17
2023-04-23T22:18:10.146Z,3.50
2023-04-23T22:21:14.497Z,3.60
2023-04-23T22:24:17.441Z,3.80
2023-04-23T22:27:20.405Z,3.60
2023-04-23T22:30:23.372Z,3.10
2023-04-23T22:33:28.252Z,3.37
2023-04-23T22:36:32.719Z,4.20
2023-04-23T22:39:35.788Z,4.10
2023-04-23T22:42:38.771Z,4.80
2023-04-23T22:45:41.773Z,4.57
2023-04-23T22:48:45.103Z,4.17
2023-04-23T22:51:49.698Z,4.63
2023-04-23T22:54:54.713Z,4.70
2023-04-23T22:57:57.915Z,4.13
2023-04-23T23:01:00.914Z,4.07
2023-04-23T23:04:03.988Z,3.80
2023-04-23T23:07:08.462Z,4.40
2023-04-23T23:10:12.047Z,4.87
2023-04-23T23:13:15.024Z,4.70
2023-04-23T23:16:18.650Z,4.70
2023-04-23T23:19:21.640Z,4.87
2023-04-23T23:22:26.871Z,5.00
2023-04-23T23:25:29.818Z,5.30
2023-04-23T23:28:32.835Z,4.90
2023-04-23T23:31:36.944Z,4.90
2023-04-23T23:34:39.994Z,5.13
2023-04-23T23:37:44.289Z,4.90
2023-04-23T23:40:47.407Z,4.93
2023-04-23T23:43:50.413Z,5.13
2023-04-23T23:46:53.388Z,5.20
2023-04-23T23:49:56.425Z,4.77
2023-04-23T23:53:00.896Z,5.67
2023-04-23T23:56:03.987Z,5.47
2023-04-23T23:59:06.920Z,5.00
